KBUU

Details ICAO KBUU (BUU)
Name BURLINGTON MUNI
Region United States
Timezone America/Chicago (UTC-6.0)
Plans Departing 4
Arriving 1
Stats Elevation 779 ft / 237 m (AMSL)
Location 42.690401° -88.304443°
Runways 2
Magnetic Variation 3.526° W
Sunrise 2017-12-11 13:15:04 UTC / 2017-12-11 07:15:04 Local
Sunset 2017-12-11 22:21:01 UTC / 2017-12-11 16:21:01 Local
Advertisement - Login to hide

Runways

ID Width Length Bearing (true) Bearing (mag) Surface Threshold Offset Overrun Length
01 130 ft / 40 m 2,478 ft / 755 m 12.00° 15.53° Grass 0 ft / 0 m 0 ft / 0 m
11 75 ft / 23 m 4,291 ft / 1,308 m 108.83° 112.36° Asphalt 0 ft / 0 m 0 ft / 0 m
19 130 ft / 40 m 2,478 ft / 755 m 192.00° 195.53° Grass 0 ft / 0 m 0 ft / 0 m
29 75 ft / 23 m 4,291 ft / 1,308 m 288.85° 292.38° Asphalt 0 ft / 0 m 0 ft / 0 m

Map

Weather


0- 5 10 15 20 25 30 35+ Temperature / ° C

Clouds and Precipitation
Forecast for 2017-12-11 12:00 UTC. Updated 25 minutes ago

Ground ~20,000 ft ~40,000 ft Winds

METAR

KBUU 111130Z AUTO 19003KT 7SM -SN SCT011 00/00 A2996 RMK AO2 T10021004

TAF

Not found

Frequencies

Unicom 123.05 MHz CTAF/UNICOM
Approach 125.35 MHz MILWAUKEE APP/DEP
Warning: Do not use this data for real-world aviation or navigation. No guarantee of current accuracy is given.